• Join FlightAware (Why Join?)
  • Login
  • US Flag 
02:54AM EDT


 

Airport Tracker/Info


-or-


 

Live Flight TrackerFlight Track Log ✈ JBU56 ✈ 26-Jul-2013 ✈ KIAD - KBOS

Flight Track Log - Related Links

Times and Time Zones

All times are in EDT time to prevent confusion due to time zone crossing. See the JBU56 flight status page for this flight to view local times or setup timezone preferences in your user account.

Time Position Orientation Groundspeed Altitude Reporting Facility
EDT Latitude Longitude Course Direction KTS MPH feet Rate Location/Type
09:11AM 38.9833 -77.5167 90° East 198 228 2,600  Level Potomac TRACON
09:12AM 39.0500 -77.5333 349° North 242 278 5,000 2,940 Climbing Potomac TRACON
09:13AM 39.0035 -77.0976 77° East  Level FlightAware Approximate
09:13AM 39.1167 -77.5333 360° North 284 327 8,300  Level Potomac TRACON
09:14AM 39.0261 -76.9731 77° East  Level FlightAware Approximate
09:14AM 39.1500 -77.4333 67° East 300 345 10,000  Level Potomac TRACON
09:15AM 39.0476 -76.8481 78° East  Level FlightAware Approximate
09:15AM 39.1500 -77.3167 90° East 351 404 10,000  Level Potomac TRACON
09:16AM 39.0667 -76.7227 90° East  Level FlightAware Approximate
09:16AM 39.1167 -77.2000 110° East 353 406 12,300  Level Potomac TRACON
09:17AM 39.0833 -76.6010 90° East  Level FlightAware Approximate
09:17AM 39.0833 -77.0667 108° East 371 427 14,800  Level Potomac TRACON
09:20AM 39.0658 -76.7758 94° East 384 442 19,000 1,920 Climbing Washington Center
09:21AM 39.0881 -76.6344 79° East 390 449 21,100 1,980 Climbing Washington Center
09:22AM 39.1100 -76.4878 79° East 396 456 23,000 900 Climbing Washington Center
09:23AM 39.1611 -76.3544 64° Northeast 411 473 23,000 180 Level Washington Center
09:24AM 39.2283 -76.2372 53° Northeast 398 458 23,400 1,080 Climbing Washington Center
09:25AM 39.3019 -76.1172 52° Northeast 407 468 25,200 1,620 Climbing Washington Center
09:26AM 39.3711 -75.9942 54° Northeast 407 468 26,600 1,320 Climbing Washington Center
09:27AM 39.4425 -75.8711 53° Northeast 418 481 27,900 1,260 Climbing Washington Center
09:28AM 39.5156 -75.7394 54° Northeast 431 496 29,200 1,380 Climbing Washington Center
09:29AM 39.5886 -75.6103 54° Northeast 438 504 30,700 840 Climbing Washington Center
09:30AM 39.6594 -75.4811 55° Northeast 438 504 31,000 120 Climbing Washington Center
09:31AM 39.7383 -75.3458 53° Northeast 451 519 31,000  Level Washington Center
09:31AM 39.7839 -75.2661 53° Northeast 450 518 31,000  Level New York Center
09:32AM 39.8581 -75.1247 56° Northeast 461 531 31,000  Level New York Center
09:33AM 39.9319 -74.9886 55° Northeast 466 536 31,000  Level New York Center
09:34AM 40.0158 -74.8528 51° Northeast 471 542 31,000  Level New York Center
09:35AM 40.0953 -74.7217 52° Northeast 466 536 31,000  Level New York Center
09:36AM 40.1769 -74.5850 52° Northeast 471 542 31,000  Level New York Center
09:37AM 40.2606 -74.4456 52° Northeast 477 549 31,000  Level New York Center
09:38AM 40.3439 -74.3083 51° Northeast 477 549 31,000  Level New York Center
09:40AM 40.4839 -74.0717 52° Northeast 479 551 31,000 -420 Level Boston Center
09:41AM 40.5625 -73.9481 50° Northeast 485 558 29,900 -1,440 Descending Boston Center
09:42AM 40.6436 -73.8103 52° Northeast 485 558 28,200 -1,800 Descending Boston Center
09:43AM 40.7286 -73.6561 54° Northeast 479 551 26,400 -1,680 Descending Boston Center
09:44AM 40.8072 -73.5314 50° Northeast 470 541 24,900 -1,200 Descending Boston Center
09:45AM 40.8811 -73.4008 53° Northeast 447 514 24,000 -480 Descending Boston Center
09:46AM 40.9464 -73.3167 44° Northeast 433 498 24,000 -420 Level Boston Center
09:47AM 41.0311 -73.1583 55° Northeast 427 491 23,200 -540 Descending Boston Center
09:48AM 41.0942 -73.0267 58° Northeast 427 491 23,000 -120 Descending Boston Center
09:49AM 41.1594 -72.8894 58° Northeast 427 491 23,000  Level Boston Center
09:50AM 41.2203 -72.7519 60° Northeast 432 497 23,000  Level Boston Center
09:51AM 41.2750 -72.6086 63° Northeast 441 507 23,000  Level Boston Center
09:52AM 41.3272 -72.4706 63° Northeast 446 513 23,000  Level Boston Center
09:53AM 41.3833 -72.3239 63° Northeast 446 513 23,000 -60 Level Boston Center
09:54AM 41.4456 -72.1714 61° Northeast 440 506 22,900 -1,320 Descending Boston Center
09:55AM 41.4972 -72.0244 65° Northeast 434 499 20,400 -2,700 Descending Boston Center
09:56AM 41.5631 -71.8603 62° Northeast 423 487 17,000 -2,040 Descending Boston Center
09:57AM 41.6022 -71.7544 64° Northeast 379 436 16,000 -1,680 Descending Boston Center
09:58AM 41.6472 -71.6372 63° Northeast 330 380 13,700 -2,040 Descending Boston Center
09:59AM 41.6819 -71.5450 63° Northeast 314 361 12,000 -1,380 Descending Boston Center
10:00AM 41.7208 -71.4389 64° Northeast 295 339 11,000 -540 Descending Boston Center
10:01AM 41.7572 -71.3408 64° Northeast 287 330 11,000  Level Boston Center
10:02AM 41.8025 -71.2733 48° Northeast 267 307 11,000 -480 Level Boston Center
10:03AM 41.8833 -71.2356 19° North 248 285 10,000 -1,200 Descending Boston Center
10:04AM 41.9414 -71.2092 19° North 248 285 8,700 -1,200 Descending Boston Center
10:05AM 42.0036 -71.1772 21° North 224 258 7,600 -1,200 Descending Boston Center
10:06AM 42.0556 -71.1539 18° North 218 251 6,300 -1,260 Descending Boston Center
10:07AM 42.1094 -71.1275 20° North 200 230 5,100 -1,200 Descending Boston Center
10:08AM 42.1333 -71.1167 19° North 179 206 4,500 -1,080 Descending KA90
10:09AM 42.2000 -71.0833 20° North 177 204 3,300 -960 Descending KA90
10:10AM 42.2333 -71.0667 20° North 172 198 2,600 -840 Descending KA90
10:11AM 42.2667 -71.0500 20° North 151 174 1,800 -780 Descending KA90
10:12AM 42.3000 -71.0333 20° North 113 130 1,100 -660 Descending KA90
10:13AM 42.3333 -71.0167 20° North 116 133 500 -600 Descending KA90
10:15AM 42.3500 -71.0000 North  Level FlightAware Approximate